Time;durP1;ratioP1;P1;durP2;ratioP2;P2;SDS_P1;SDS_P2;PMS_P1;PMS_P2;Temp;Humidity;BMP_temperature;BMP_pressure;BME280_temperature;BME280_humidity;BME280_pressure;Samples;Min_cycle;Max_cycle;Signal;HPM_P1;HPM_P2
2022/01/04 00:01:24;;;;;;;14.18;7.05;;;7.90;99.90;;;;;;5001970;28;20041;-77
2022/01/04 00:03:51;;;;;;;10.75;6.32;;;7.80;99.90;;;;;;5006580;28;20148;-78
2022/01/04 00:06:18;;;;;;;12.75;5.45;;;7.80;99.90;;;;;;4997298;28;20664;-79
2022/01/04 00:08:45;;;;;;;13.57;5.82;;;7.70;99.90;;;;;;4993919;28;20073;-77
2022/01/04 00:11:17;;;;;;;9.90;5.50;;;7.70;99.90;;;;;;5023517;28;20100;-77
2022/01/04 00:13:45;;;;;;;14.25;6.55;;;7.70;99.90;;;;;;4851962;23;20510;-76
2022/01/04 00:16:12;;;;;;;11.02;6.30;;;7.70;99.90;;;;;;5009051;28;20084;-76
2022/01/04 00:18:40;;;;;;;11.23;7.32;;;7.70;99.90;;;;;;4996744;28;20050;-76
2022/01/04 00:21:08;;;;;;;14.82;6.40;;;7.60;99.90;;;;;;4984521;28;20465;-76
2022/01/04 00:23:35;;;;;;;16.70;7.25;;;7.60;99.90;;;;;;4985125;28;20056;-76
2022/01/04 00:26:02;;;;;;;16.20;7.40;;;7.60;99.90;;;;;;5004374;28;20157;-76
2022/01/04 00:28:29;;;;;;;11.77;7.07;;;7.50;99.90;;;;;;5003329;28;20042;-76
2022/01/04 00:30:55;;;;;;;14.30;7.53;;;7.50;99.90;;;;;;5004337;28;20589;-76
2022/01/04 00:33:23;;;;;;;20.90;8.15;;;7.50;99.90;;;;;;5004538;28;20541;-76
2022/01/04 00:35:50;;;;;;;13.65;7.00;;;7.40;99.90;;;;;;5018045;28;20053;-76
2022/01/04 00:38:17;;;;;;;11.55;5.95;;;7.40;99.90;;;;;;5002975;28;20513;-76
2022/01/04 00:40:44;;;;;;;12.20;5.88;;;7.40;99.90;;;;;;5018354;28;20054;-76
2022/01/04 00:43:10;;;;;;;11.60;5.75;;;7.40;99.90;;;;;;5002409;28;20109;-76
2022/01/04 00:45:37;;;;;;;8.23;4.90;;;7.40;99.90;;;;;;5003707;28;20050;-76
2022/01/04 00:50:36;;;;;;;6.90;5.13;;;7.40;99.90;;;;;;4984843;28;20454;-76
2022/01/04 00:53:04;;;;;;;7.78;5.53;;;7.40;99.90;;;;;;4998979;28;20145;-76
2022/01/04 00:55:31;;;;;;;12.35;5.80;;;7.30;99.90;;;;;;4983992;28;20046;-76
2022/01/04 00:57:59;;;;;;;7.53;5.00;;;7.40;99.90;;;;;;5000256;28;20043;-76
2022/01/04 01:00:26;;;;;;;11.30;5.55;;;7.40;99.90;;;;;;5002790;28;20196;-76
2022/01/04 01:02:53;;;;;;;10.05;6.00;;;7.40;99.90;;;;;;5002386;28;20074;-76
2022/01/04 01:05:25;;;;;;;10.52;6.47;;;7.40;99.90;;;;;;5017212;28;20553;-76
2022/01/04 01:07:53;;;;;;;15.80;6.97;;;7.40;99.90;;;;;;5002717;28;20652;-76
2022/01/04 01:11:05;;;;;;;11.40;6.95;;;7.30;99.90;;;;;;5003235;28;20081;-75
2022/01/04 01:13:12;;;;;;;11.75;6.78;;;7.30;99.90;;;;;;4998221;28;20133;-75
2022/01/04 01:15:41;;;;;;;9.63;6.82;;;7.20;99.90;;;;;;5001412;28;20053;-76
2022/01/04 01:18:08;;;;;;;11.68;6.82;;;7.20;99.90;;;;;;5000217;28;20041;-76
2022/01/04 01:20:35;;;;;;;10.23;6.30;;;7.20;99.90;;;;;;5002225;28;20042;-76
2022/01/04 01:23:02;;;;;;;15.73;6.88;;;7.20;99.90;;;;;;5019008;28;20449;-75
2022/01/04 01:25:29;;;;;;;12.95;6.68;;;7.20;99.90;;;;;;5003119;28;20407;-76
2022/01/04 01:27:56;;;;;;;10.27;5.00;;;7.20;99.90;;;;;;5003163;28;20399;-75
2022/01/04 01:30:23;;;;;;;9.38;5.68;;;7.20;99.90;;;;;;5003015;28;20351;-76
2022/01/04 01:32:51;;;;;;;8.23;5.00;;;7.10;99.90;;;;;;5003484;28;20062;-75
2022/01/04 01:35:19;;;;;;;9.15;4.95;;;7.10;99.90;;;;;;5001099;28;20050;-76
2022/01/04 01:37:46;;;;;;;9.48;4.95;;;7.10;99.90;;;;;;5002688;28;20033;-76
2022/01/04 01:40:13;;;;;;;9.80;4.97;;;7.10;99.90;;;;;;5002421;28;20104;-75
2022/01/04 01:42:40;;;;;;;7.80;4.55;;;7.10;99.90;;;;;;5002908;28;20231;-76
2022/01/04 01:45:10;;;;;;;8.48;4.93;;;7.10;99.90;;;;;;5002791;28;20139;-76
2022/01/04 01:47:41;;;;;;;6.68;3.75;;;7.10;99.90;;;;;;4992080;28;20054;-76
2022/01/04 01:50:09;;;;;;;7.30;4.03;;;7.10;99.90;;;;;;5000611;28;20138;-75
2022/01/04 01:52:36;;;;;;;5.75;4.10;;;7.00;99.90;;;;;;5003332;28;20085;-76
2022/01/04 01:55:04;;;;;;;6.72;4.20;;;7.10;99.90;;;;;;5001239;28;20049;-76
2022/01/04 01:57:31;;;;;;;7.72;4.03;;;7.00;99.90;;;;;;5016897;28;20070;-76
2022/01/04 01:59:58;;;;;;;7.47;3.40;;;7.00;99.90;;;;;;5002469;28;20069;-76
2022/01/04 02:02:25;;;;;;;6.18;4.05;;;7.00;99.90;;;;;;5002200;28;20053;-75
2022/01/04 02:04:52;;;;;;;5.85;3.60;;;6.90;99.90;;;;;;5002452;28;20347;-76
2022/01/04 02:07:20;;;;;;;11.45;4.35;;;6.90;99.90;;;;;;5001956;28;20050;-75
2022/01/04 02:09:57;;;;;;;9.73;4.10;;;6.90;99.90;;;;;;5017127;28;20111;-76
2022/01/04 02:12:26;;;;;;;6.07;3.45;;;6.90;99.90;;;;;;5001757;28;20049;-76
2022/01/04 02:14:52;;;;;;;5.65;3.30;;;6.90;99.90;;;;;;5001271;28;20467;-76
2022/01/04 02:17:19;;;;;;;6.28;3.40;;;6.90;99.90;;;;;;4997931;28;20065;-76
2022/01/04 02:19:46;;;;;;;5.25;3.55;;;6.80;99.90;;;;;;5005782;28;20129;-76
2022/01/04 02:22:12;;;;;;;6.60;3.90;;;6.80;99.90;;;;;;4980582;28;20085;-76
2022/01/04 02:24:39;;;;;;;7.38;3.78;;;6.90;99.90;;;;;;4980888;28;20830;-76
2022/01/04 02:27:06;;;;;;;7.70;3.75;;;6.80;99.90;;;;;;4982227;28;20052;-76
2022/01/04 02:29:33;;;;;;;7.32;3.58;;;6.80;99.90;;;;;;4990106;28;20111;-76
2022/01/04 02:32:00;;;;;;;5.07;3.78;;;6.80;99.90;;;;;;5000520;28;20095;-76
2022/01/04 02:34:27;;;;;;;7.25;3.72;;;6.80;99.90;;;;;;5000589;28;20173;-76
2022/01/04 02:36:53;;;;;;;9.57;3.88;;;6.80;99.90;;;;;;5001105;28;20744;-75
2022/01/04 02:39:20;;;;;;;7.22;3.30;;;6.80;99.90;;;;;;5015283;28;20072;-76
2022/01/04 02:41:47;;;;;;;6.32;3.22;;;6.80;99.90;;;;;;5001529;28;20184;-75
2022/01/04 02:44:14;;;;;;;5.20;3.28;;;6.80;99.90;;;;;;5000830;28;20053;-75
2022/01/04 02:46:40;;;;;;;7.15;3.30;;;6.80;99.90;;;;;;4999465;28;20115;-76
2022/01/04 02:49:07;;;;;;;5.50;2.85;;;6.80;99.90;;;;;;4998771;28;20571;-76
2022/01/04 02:51:34;;;;;;;4.72;2.83;;;6.80;99.90;;;;;;4980742;28;20331;-75
2022/01/04 02:54:01;;;;;;;5.50;3.70;;;6.90;99.90;;;;;;4982395;28;20077;-76
2022/01/04 02:56:27;;;;;;;6.90;3.70;;;6.90;99.90;;;;;;4996807;28;20101;-75
2022/01/04 02:59:01;;;;;;;5.20;3.50;;;6.90;99.90;;;;;;4989558;28;20073;-76
2022/01/04 03:01:27;;;;;;;5.30;3.72;;;6.90;99.90;;;;;;4999974;28;20218;-76
2022/01/04 03:03:55;;;;;;;7.05;3.60;;;7.00;99.90;;;;;;5002238;28;20044;-76
2022/01/04 03:06:21;;;;;;;5.88;4.30;;;7.00;99.90;;;;;;4999234;28;20070;-75
2022/01/04 03:08:48;;;;;;;7.63;4.07;;;7.00;99.90;;;;;;5001485;28;20287;-75
2022/01/04 03:11:15;;;;;;;7.85;4.38;;;7.10;99.90;;;;;;4998223;28;20053;-75
2022/01/04 03:13:42;;;;;;;12.63;4.90;;;7.10;99.90;;;;;;5001343;28;20575;-76
2022/01/04 03:16:09;;;;;;;11.30;5.55;;;7.20;99.90;;;;;;5000681;28;20050;-76
2022/01/04 03:18:44;;;;;;;10.02;5.10;;;7.30;99.90;;;;;;4995813;28;20100;-75
2022/01/04 03:21:11;;;;;;;11.75;5.28;;;7.20;99.90;;;;;;5014533;28;20107;-76
2022/01/04 03:23:37;;;;;;;8.82;5.55;;;7.30;99.90;;;;;;4999456;28;20406;-76
2022/01/04 03:26:04;;;;;;;10.20;5.55;;;7.30;99.90;;;;;;4993121;28;20053;-76
2022/01/04 03:28:31;;;;;;;10.98;6.13;;;7.30;99.90;;;;;;4999708;28;20104;-76
2022/01/04 03:30:58;;;;;;;10.43;6.13;;;7.20;99.90;;;;;;5000280;28;20164;-76
2022/01/04 03:33:24;;;;;;;12.82;6.43;;;7.30;99.90;;;;;;4998647;28;20069;-76
2022/01/04 03:35:51;;;;;;;13.48;6.53;;;7.20;99.90;;;;;;5000330;28;20041;-76
2022/01/04 03:38:19;;;;;;;13.90;6.60;;;7.20;99.90;;;;;;4997973;28;20125;-75
2022/01/04 03:40:47;;;;;;;8.40;5.88;;;7.20;99.90;;;;;;4990020;28;20133;-76
2022/01/04 03:43:14;;;;;;;9.50;5.72;;;7.20;99.90;;;;;;4997969;28;20460;-76
2022/01/04 03:45:40;;;;;;;9.68;5.72;;;7.20;99.90;;;;;;4995187;28;20133;-75
2022/01/04 03:48:07;;;;;;;12.25;6.75;;;7.20;99.90;;;;;;4994037;28;20050;-76
2022/01/04 03:50:34;;;;;;;13.80;6.35;;;7.20;99.90;;;;;;4989089;28;20061;-76
2022/01/04 03:53:01;;;;;;;10.02;6.07;;;7.10;99.90;;;;;;4999786;28;20103;-76
2022/01/04 03:55:27;;;;;;;9.85;6.22;;;7.10;99.90;;;;;;4999983;28;20124;-76
2022/01/04 03:57:54;;;;;;;11.85;6.60;;;7.00;99.90;;;;;;5001201;28;20086;-76
2022/01/04 04:00:21;;;;;;;12.75;6.43;;;7.00;99.90;;;;;;5000609;28;20045;-76
2022/01/04 04:02:47;;;;;;;10.60;7.05;;;7.00;99.90;;;;;;5001572;28;20507;-75
2022/01/04 04:05:15;;;;;;;9.55;6.70;;;7.00;99.90;;;;;;4999251;28;20046;-75
2022/01/04 04:07:42;;;;;;;16.00;6.50;;;7.00;99.90;;;;;;4996723;28;20034;-76
2022/01/04 04:10:10;;;;;;;9.07;6.63;;;7.00;99.90;;;;;;5000258;28;20057;-75
2022/01/04 04:12:38;;;;;;;10.38;6.80;;;7.00;99.90;;;;;;5003013;28;20070;-75
2022/01/04 04:15:08;;;;;;;18.80;7.07;;;6.90;99.90;;;;;;4996737;28;20078;-75
2022/01/04 04:17:36;;;;;;;8.10;6.15;;;6.80;99.90;;;;;;5012628;28;20097;-75
2022/01/04 04:20:04;;;;;;;6.80;5.47;;;6.80;99.90;;;;;;5009337;28;20129;-75
2022/01/04 04:22:32;;;;;;;6.72;4.40;;;6.80;99.90;;;;;;5014875;28;20461;-75
2022/01/04 04:24:58;;;;;;;9.48;5.55;;;6.70;99.90;;;;;;5000240;28;20214;-76
2022/01/04 04:27:25;;;;;;;8.00;4.85;;;6.70;99.90;;;;;;4997689;28;20096;-75
2022/01/04 04:29:52;;;;;;;7.82;5.30;;;6.70;99.90;;;;;;4999909;28;20128;-75
2022/01/04 04:32:18;;;;;;;7.75;4.93;;;6.60;99.90;;;;;;4997911;28;20061;-75
2022/01/04 04:34:45;;;;;;;5.40;4.38;;;6.60;99.90;;;;;;5000051;28;20060;-75
2022/01/04 04:37:12;;;;;;;7.80;4.13;;;6.60;99.90;;;;;;4997274;28;20045;-75
2022/01/04 04:39:39;;;;;;;9.40;4.30;;;6.60;99.90;;;;;;5000371;28;20508;-75
2022/01/04 04:42:06;;;;;;;5.40;4.35;;;6.60;99.90;;;;;;4994971;28;20071;-75
2022/01/04 04:44:33;;;;;;;6.93;3.58;;;6.60;99.90;;;;;;4981411;28;20046;-75
2022/01/04 04:46:59;;;;;;;7.00;3.60;;;6.60;99.90;;;;;;4994324;28;20215;-75
2022/01/04 04:49:26;;;;;;;5.95;4.00;;;6.60;99.90;;;;;;4983958;28;20124;-75
2022/01/04 04:51:59;;;;;;;4.97;3.22;;;6.50;99.90;;;;;;5004649;28;20041;-75
2022/01/04 04:54:27;;;;;;;5.28;3.15;;;6.50;99.90;;;;;;4985825;28;20054;-75
2022/01/04 04:56:54;;;;;;;3.33;2.70;;;6.50;99.90;;;;;;4989686;28;20366;-75
2022/01/04 04:59:20;;;;;;;12.07;2.97;;;6.50;99.90;;;;;;5000673;28;20546;-75
2022/01/04 05:01:47;;;;;;;2.60;2.35;;;6.50;99.90;;;;;;5003137;28;20128;-75
2022/01/04 05:04:14;;;;;;;4.75;2.63;;;6.50;99.90;;;;;;5002764;28;20115;-75
2022/01/04 05:06:41;;;;;;;3.25;2.00;;;6.40;99.90;;;;;;5002200;28;20129;-74
2022/01/04 05:09:08;;;;;;;2.22;1.92;;;6.50;99.90;;;;;;5003295;28;20081;-74
2022/01/04 05:11:34;;;;;;;4.72;2.60;;;6.40;99.90;;;;;;4999623;28;20112;-74
2022/01/04 05:14:01;;;;;;;3.38;2.40;;;6.40;99.90;;;;;;5002207;28;20111;-73
2022/01/04 05:16:28;;;;;;;5.00;2.40;;;6.40;99.90;;;;;;5001159;28;20518;-74
2022/01/04 05:18:55;;;;;;;4.93;2.75;;;6.40;99.90;;;;;;5001620;28;20453;-74
2022/01/04 05:21:21;;;;;;;3.65;2.67;;;6.40;99.90;;;;;;4983978;28;20062;-74
2022/01/04 05:23:50;;;;;;;3.92;2.60;;;6.40;99.90;;;;;;4991223;28;20135;-74
2022/01/04 05:26:16;;;;;;;4.68;2.67;;;6.40;99.90;;;;;;5002061;28;20041;-74
2022/01/04 05:28:45;;;;;;;3.80;2.45;;;6.40;99.90;;;;;;5000829;28;20806;-73
2022/01/04 05:31:13;;;;;;;3.85;3.15;;;6.40;99.90;;;;;;5017408;28;20042;-74
2022/01/04 05:33:41;;;;;;;6.57;3.25;;;6.40;99.90;;;;;;5000788;28;20500;-74
2022/01/04 05:36:07;;;;;;;7.38;2.63;;;6.40;99.90;;;;;;5000279;28;20411;-74
2022/01/04 05:38:34;;;;;;;7.05;4.22;;;6.40;99.90;;;;;;4993345;28;20358;-74
2022/01/04 05:41:01;;;;;;;5.22;2.80;;;6.40;99.90;;;;;;4983049;28;20103;-74
2022/01/04 05:43:28;;;;;;;6.30;2.53;;;6.30;99.90;;;;;;4990757;28;20100;-74
2022/01/04 05:45:55;;;;;;;4.57;3.10;;;6.30;99.90;;;;;;4999989;28;20073;-74
2022/01/04 05:48:22;;;;;;;5.15;3.60;;;6.20;99.90;;;;;;4996315;28;20077;-74
2022/01/04 05:50:48;;;;;;;8.82;3.00;;;6.20;99.90;;;;;;4989173;28;20045;-74
2022/01/04 05:53:15;;;;;;;4.78;3.05;;;6.20;99.90;;;;;;5015785;28;20081;-74
2022/01/04 05:55:42;;;;;;;6.88;3.28;;;6.20;99.90;;;;;;4999089;28;20081;-74
2022/01/04 05:58:09;;;;;;;7.88;3.35;;;6.30;99.90;;;;;;5016401;28;20086;-74
2022/01/04 06:00:36;;;;;;;7.05;3.33;;;6.30;99.90;;;;;;5015099;28;20053;-74
2022/01/04 06:03:03;;;;;;;5.72;3.45;;;6.30;99.90;;;;;;5001558;28;20355;-74
2022/01/04 06:05:30;;;;;;;10.02;4.25;;;6.40;99.90;;;;;;5000181;28;20132;-74
2022/01/04 06:07:57;;;;;;;6.03;3.88;;;6.40;99.90;;;;;;4983316;28;20111;-73
2022/01/04 06:10:24;;;;;;;6.93;4.72;;;6.30;99.90;;;;;;5000279;28;20383;-74
2022/01/04 06:15:25;;;;;;;5.57;3.03;;;6.30;99.90;;;;;;4939359;28;20051;-77
2022/01/04 06:17:52;;;;;;;3.15;2.72;;;6.30;99.90;;;;;;4943486;29;20220;-76
2022/01/04 06:20:21;;;;;;;6.03;2.45;;;6.30;99.90;;;;;;4955619;28;20055;-77
2022/01/04 06:22:52;;;;;;;10.32;5.63;;;6.30;99.90;;;;;;4958734;28;20150;-76
2022/01/04 06:25:21;;;;;;;16.98;7.85;;;6.30;99.90;;;;;;4924841;29;20177;-77
2022/01/04 06:27:51;;;;;;;24.70;10.85;;;6.30;99.90;;;;;;4955181;28;20044;-77
2022/01/04 06:30:21;;;;;;;11.75;6.50;;;6.30;99.90;;;;;;4925951;29;20103;-77
2022/01/04 06:32:50;;;;;;;16.73;8.57;;;6.30;99.90;;;;;;4926784;29;20044;-77
2022/01/04 06:35:17;;;;;;;11.32;6.82;;;6.30;99.90;;;;;;4924775;29;20082;-77
2022/01/04 06:37:45;;;;;;;11.50;5.35;;;6.30;99.90;;;;;;4908152;29;20107;-76
2022/01/04 06:40:13;;;;;;;9.13;4.93;;;6.30;99.90;;;;;;4941844;28;20061;-76
2022/01/04 06:42:39;;;;;;;3.90;2.50;;;6.30;99.90;;;;;;4916806;29;20062;-77
2022/01/04 06:45:07;;;;;;;5.07;3.20;;;6.20;99.90;;;;;;4909131;28;20138;-77
2022/01/04 06:47:33;;;;;;;3.75;2.20;;;6.30;99.90;;;;;;4933674;29;20077;-77
2022/01/04 06:50:01;;;;;;;6.38;3.35;;;6.20;99.90;;;;;;4953362;28;20106;-77
2022/01/04 06:52:28;;;;;;;2.42;2.00;;;6.30;99.90;;;;;;4958071;28;20133;-77
2022/01/04 06:54:55;;;;;;;2.70;1.70;;;6.20;99.90;;;;;;4960399;28;20142;-77
2022/01/04 06:57:22;;;;;;;1.92;1.38;;;6.20;99.90;;;;;;4945775;28;20036;-76
2022/01/04 06:59:49;;;;;;;3.22;2.05;;;6.20;99.90;;;;;;4927085;29;20152;-77
2022/01/04 07:02:15;;;;;;;3.42;2.00;;;6.20;99.90;;;;;;4932905;29;20125;-76
2022/01/04 07:04:42;;;;;;;5.07;2.60;;;6.20;99.90;;;;;;4959752;28;20046;-77
2022/01/04 07:07:09;;;;;;;3.92;2.67;;;6.10;99.90;;;;;;4953472;28;20054;-77
2022/01/04 07:09:36;;;;;;;3.75;2.40;;;6.10;99.90;;;;;;4935462;28;20049;-77
2022/01/04 07:12:03;;;;;;;3.50;2.53;;;6.00;99.90;;;;;;4943448;28;20051;-77
2022/01/04 07:14:30;;;;;;;4.82;2.78;;;6.00;99.90;;;;;;4942554;29;20047;-76
2022/01/04 07:16:57;;;;;;;5.50;4.22;;;6.10;99.90;;;;;;4924669;28;20048;-76
2022/01/04 07:19:24;;;;;;;9.70;4.38;;;6.00;99.90;;;;;;4955729;28;20118;-77
2022/01/04 07:21:51;;;;;;;8.80;5.43;;;6.00;99.90;;;;;;4924729;29;20121;-77
2022/01/04 07:24:18;;;;;;;8.05;5.32;;;6.00;99.90;;;;;;4937401;29;20056;-76
2022/01/04 07:26:45;;;;;;;8.48;5.05;;;6.00;99.90;;;;;;4922383;28;20124;-78
2022/01/04 07:29:11;;;;;;;8.52;5.32;;;6.00;99.90;;;;;;4925358;29;20670;-77
2022/01/04 07:31:38;;;;;;;9.27;5.90;;;6.00;99.90;;;;;;4924926;29;20074;-76
2022/01/04 07:34:05;;;;;;;7.00;4.82;;;6.10;99.90;;;;;;4923922;29;20043;-76
2022/01/04 07:36:32;;;;;;;9.18;4.50;;;6.10;99.90;;;;;;4922678;29;20090;-76
2022/01/04 07:38:59;;;;;;;8.75;4.20;;;6.10;99.90;;;;;;4923737;29;20528;-76
2022/01/04 07:41:26;;;;;;;6.95;3.78;;;6.00;99.90;;;;;;4931683;28;20094;-76
2022/01/04 07:43:53;;;;;;;6.22;4.00;;;6.10;99.90;;;;;;4958330;28;20118;-76
2022/01/04 07:46:21;;;;;;;7.22;4.28;;;6.10;99.90;;;;;;4956527;28;20097;-76
2022/01/04 07:48:49;;;;;;;9.38;5.18;;;6.10;99.90;;;;;;4934922;29;20062;-77
2022/01/04 07:51:17;;;;;;;5.38;4.55;;;6.10;99.90;;;;;;4920158;29;20060;-77
2022/01/04 07:53:44;;;;;;;10.15;5.57;;;6.20;99.90;;;;;;4906241;29;20080;-77
2022/01/04 07:56:11;;;;;;;7.88;4.75;;;6.10;99.90;;;;;;4929162;29;20407;-77
2022/01/04 07:58:38;;;;;;;9.13;4.65;;;6.10;99.90;;;;;;4972136;28;20120;-76
2022/01/04 08:01:04;;;;;;;8.13;4.20;;;6.10;99.90;;;;;;4925948;29;20060;-77
2022/01/04 08:03:31;;;;;;;7.82;4.68;;;6.10;99.90;;;;;;4908215;29;20059;-76
2022/01/04 08:05:58;;;;;;;10.07;4.75;;;6.10;99.90;;;;;;4926370;28;20051;-76
2022/01/04 08:08:25;;;;;;;8.07;4.47;;;6.20;99.90;;;;;;4926314;29;20060;-76
2022/01/04 08:10:52;;;;;;;8.90;4.53;;;6.20;99.90;;;;;;4929211;29;20118;-79
2022/01/04 08:13:19;;;;;;;10.15;4.80;;;6.20;99.90;;;;;;4946981;28;20051;-77
2022/01/04 08:15:46;;;;;;;9.45;5.63;;;6.30;99.90;;;;;;4944502;29;20459;-79
2022/01/04 08:18:13;;;;;;;14.70;5.57;;;6.20;99.90;;;;;;4934671;29;20114;-75
2022/01/04 08:20:39;;;;;;;12.52;6.07;;;6.40;99.90;;;;;;4938260;29;20082;-76
2022/01/04 08:23:12;;;;;;;14.90;7.35;;;6.40;99.90;;;;;;4912571;29;20059;-76
2022/01/04 08:25:39;;;;;;;16.05;8.00;;;6.40;99.90;;;;;;4931529;29;20116;-77
2022/01/04 08:28:05;;;;;;;10.77;6.45;;;6.30;99.90;;;;;;4917929;29;20153;-76
2022/01/04 08:30:32;;;;;;;21.00;7.03;;;6.30;99.90;;;;;;4947773;28;20250;-76
2022/01/04 08:32:59;;;;;;;25.98;13.75;;;6.30;99.90;;;;;;4933125;29;20105;-76
2022/01/04 08:35:26;;;;;;;12.90;7.90;;;6.30;99.90;;;;;;4929516;29;20043;-76
2022/01/04 08:37:52;;;;;;;15.35;7.45;;;6.30;99.90;;;;;;4927474;29;20083;-77
2022/01/04 08:40:19;;;;;;;9.98;6.35;;;6.30;99.90;;;;;;4943323;28;20476;-78
2022/01/04 08:42:46;;;;;;;9.57;6.43;;;6.30;99.90;;;;;;4927464;29;20071;-72
2022/01/04 08:45:13;;;;;;;12.93;5.60;;;6.40;99.90;;;;;;4940987;28;20055;-74
2022/01/04 08:47:40;;;;;;;12.85;6.82;;;6.40;99.90;;;;;;4916977;29;20606;-76
2022/01/04 08:50:09;;;;;;;10.43;5.88;;;6.30;99.90;;;;;;4940527;28;20109;-76
2022/01/04 08:52:37;;;;;;;8.70;6.28;;;6.30;99.90;;;;;;4930125;29;20135;-74
2022/01/04 08:55:04;;;;;;;7.75;5.53;;;6.30;99.90;;;;;;4927006;29;20051;-76
2022/01/04 08:57:31;;;;;;;9.10;6.45;;;6.30;99.90;;;;;;4927169;29;20570;-76
2022/01/04 08:59:58;;;;;;;11.05;8.10;;;6.30;99.90;;;;;;4927830;29;20055;-74
2022/01/04 09:02:25;;;;;;;13.88;9.35;;;6.30;99.90;;;;;;4940919;29;20071;-76
2022/01/04 09:04:52;;;;;;;12.27;7.18;;;6.30;99.90;;;;;;4942194;29;20048;-74
2022/01/04 09:07:19;;;;;;;16.38;9.23;;;6.30;99.90;;;;;;4926366;29;20134;-74
2022/01/04 09:09:46;;;;;;;12.88;8.07;;;6.30;99.90;;;;;;4943526;28;20134;-76
2022/01/04 09:12:34;;;;;;;9.50;6.68;;;6.20;99.90;;;;;;4927008;29;20054;-73
2022/01/04 09:15:30;;;;;;;10.18;7.32;;;6.20;99.90;;;;;;4940193;28;20067;-73
2022/01/04 09:20:41;;;;;;;12.80;7.50;;;6.20;99.90;;;;;;4934822;28;20043;-74
2022/01/04 09:23:08;;;;;;;15.75;8.25;;;6.30;99.90;;;;;;4940696;29;20044;-76
2022/01/04 09:25:35;;;;;;;15.30;8.00;;;6.30;99.90;;;;;;4908497;29;20071;-77
2022/01/04 09:28:08;;;;;;;12.80;7.28;;;6.40;99.90;;;;;;4941189;29;20515;-74
2022/01/04 09:30:34;;;;;;;16.92;8.98;;;6.30;99.90;;;;;;4925069;29;20350;-72
2022/01/04 09:33:02;;;;;;;18.17;10.10;;;6.30;99.90;;;;;;4908366;29;20162;-77
2022/01/04 09:35:29;;;;;;;14.80;8.52;;;6.40;99.90;;;;;;4907833;29;20572;-74
2022/01/04 09:37:56;;;;;;;18.95;8.27;;;6.40;99.90;;;;;;4925798;29;20756;-74
2022/01/04 09:40:23;;;;;;;16.15;10.27;;;6.40;99.90;;;;;;4925825;29;20556;-74
2022/01/04 09:42:50;;;;;;;20.77;10.00;;;6.40;99.90;;;;;;4913703;29;20202;-74
2022/01/04 09:45:17;;;;;;;17.35;9.63;;;6.40;99.90;;;;;;4925409;29;20094;-76
2022/01/04 09:47:44;;;;;;;15.98;9.75;;;6.40;99.90;;;;;;4935722;29;20066;-74
2022/01/04 09:50:11;;;;;;;17.30;8.98;;;6.40;99.90;;;;;;4951782;28;20789;-75
2022/01/04 09:52:47;;;;;;;13.02;7.53;;;6.40;99.90;;;;;;4956283;28;20043;-74
2022/01/04 09:55:15;;;;;;;14.10;7.25;;;6.40;99.90;;;;;;4940024;28;20104;-74
2022/01/04 09:57:46;;;;;;;15.70;9.10;;;6.40;99.90;;;;;;4957005;28;20048;-75
2022/01/04 10:00:17;;;;;;;16.20;8.10;;;6.40;99.90;;;;;;4909043;29;20052;-77
2022/01/04 10:02:47;;;;;;;13.02;6.35;;;6.40;99.90;;;;;;4940355;29;20111;-77
2022/01/04 10:05:23;;;;;;;14.30;7.32;;;6.40;99.90;;;;;;4925575;28;20151;-75
2022/01/04 10:08:01;;;;;;;14.90;6.90;;;6.40;99.90;;;;;;4908194;29;20683;-75
2022/01/04 10:10:28;;;;;;;13.90;7.03;;;6.40;99.90;;;;;;4908461;29;20047;-75
2022/01/04 10:13:04;;;;;;;17.35;6.82;;;6.50;99.90;;;;;;4926289;29;20051;-74
2022/01/04 10:15:50;;;;;;;16.20;7.10;;;6.50;99.90;;;;;;4924785;29;20040;-75
2022/01/04 10:18:24;;;;;;;17.05;7.90;;;6.50;99.90;;;;;;4915600;29;20056;-75
2022/01/04 10:21:10;;;;;;;12.33;6.40;;;6.60;99.90;;;;;;4907544;29;20208;-77
2022/01/04 10:23:52;;;;;;;15.77;7.47;;;6.60;99.90;;;;;;4925341;29;20048;-75
2022/01/04 10:26:37;;;;;;;16.88;6.50;;;6.50;99.90;;;;;;4939518;29;20559;-75
2022/01/04 10:29:20;;;;;;;14.35;7.00;;;6.60;99.90;;;;;;4925927;29;20078;-75
2022/01/04 10:31:47;;;;;;;15.57;7.40;;;6.60;99.90;;;;;;4923733;29;20067;-75
2022/01/04 10:34:14;;;;;;;13.23;7.55;;;6.60;99.90;;;;;;4940067;29;20763;-75
2022/01/04 10:36:41;;;;;;;17.02;8.68;;;6.60;99.90;;;;;;4907586;29;20052;-75
2022/01/04 10:39:09;;;;;;;20.25;8.35;;;6.50;99.90;;;;;;4923916;29;20044;-75
2022/01/04 10:41:36;;;;;;;16.30;7.70;;;6.50;99.90;;;;;;4939573;28;20048;-77
2022/01/04 10:44:09;;;;;;;17.48;7.88;;;6.50;99.90;;;;;;4925327;29;20142;-77
2022/01/04 10:46:38;;;;;;;13.95;7.80;;;6.50;99.90;;;;;;4933239;29;20078;-77
2022/01/04 10:49:17;;;;;;;15.05;8.82;;;6.60;99.90;;;;;;4910069;29;20059;-77
2022/01/04 10:51:45;;;;;;;14.70;7.95;;;6.60;99.90;;;;;;4923342;29;20202;-75
2022/01/04 10:54:20;;;;;;;17.45;8.68;;;6.60;99.90;;;;;;4923010;29;20547;-75
2022/01/04 10:56:47;;;;;;;15.73;8.45;;;6.60;99.90;;;;;;4923613;29;20070;-75
2022/01/04 10:59:13;;;;;;;19.55;8.77;;;6.70;99.90;;;;;;4924646;29;20110;-75
2022/01/04 11:01:46;;;;;;;16.65;8.45;;;6.70;99.90;;;;;;4938367;29;20505;-75
2022/01/04 11:04:17;;;;;;;16.13;8.73;;;6.60;99.90;;;;;;4905854;29;20202;-77
2022/01/04 11:06:45;;;;;;;17.98;9.07;;;6.60;99.90;;;;;;4906522;29;20071;-75
2022/01/04 11:09:12;;;;;;;18.30;8.73;;;6.70;99.90;;;;;;4924846;29;20052;-77
2022/01/04 11:11:40;;;;;;;16.65;8.48;;;6.60;99.90;;;;;;4940765;28;20484;-77
2022/01/04 11:14:09;;;;;;;22.45;9.65;;;6.60;99.90;;;;;;4924031;29;20083;-77
2022/01/04 11:16:36;;;;;;;21.42;9.55;;;6.50;99.90;;;;;;4925510;29;20139;-75
2022/01/04 11:19:04;;;;;;;20.38;8.68;;;6.50;99.90;;;;;;4928081;29;20051;-74
2022/01/04 11:21:39;;;;;;;18.73;9.35;;;6.60;99.90;;;;;;4924357;29;20610;-77
2022/01/04 11:24:08;;;;;;;19.20;9.35;;;6.50;99.90;;;;;;4938227;29;20079;-75
2022/01/04 11:26:39;;;;;;;22.42;10.52;;;6.50;99.90;;;;;;4922848;29;20143;-77
2022/01/04 11:29:06;;;;;;;19.52;8.80;;;6.50;99.90;;;;;;4923205;29;20147;-75
2022/01/04 11:31:48;;;;;;;22.70;9.77;;;6.50;99.90;;;;;;4923511;29;20141;-77
2022/01/04 11:34:47;;;;;;;22.38;9.50;;;6.60;99.90;;;;;;4906889;29;20063;-75
2022/01/04 11:37:21;;;;;;;23.38;9.82;;;6.60;99.90;;;;;;4914464;29;20748;-77
2022/01/04 11:39:48;;;;;;;18.02;7.85;;;6.60;99.90;;;;;;4948553;28;20829;-77
2022/01/04 11:42:34;;;;;;;18.52;8.27;;;6.50;99.90;;;;;;4914614;29;20043;-75
2022/01/04 11:45:08;;;;;;;19.17;9.18;;;6.50;99.90;;;;;;4923135;29;20082;-75
2022/01/04 11:47:37;;;;;;;17.35;8.15;;;6.50;99.90;;;;;;4932540;29;20181;-75
2022/01/04 11:50:20;;;;;;;18.63;8.82;;;6.50;99.90;;;;;;4942108;29;20051;-76
2022/01/04 11:52:56;;;;;;;23.45;9.23;;;6.50;99.90;;;;;;4934201;29;20048;-76
2022/01/04 11:55:33;;;;;;;25.75;9.35;;;6.60;99.90;;;;;;4955498;28;20075;-76
2022/01/04 11:58:09;;;;;;;20.30;7.93;;;6.60;99.90;;;;;;4939713;28;20082;-75
2022/01/04 12:00:38;;;;;;;20.98;8.00;;;6.70;99.90;;;;;;4928016;29;20448;-76
2022/01/04 12:03:20;;;;;;;19.90;9.45;;;6.60;99.90;;;;;;4944400;29;20135;-75
2022/01/04 12:05:55;;;;;;;17.38;7.78;;;6.70;99.90;;;;;;4926614;29;20048;-75
2022/01/04 12:08:25;;;;;;;14.38;7.43;;;6.60;99.90;;;;;;4927602;29;20122;-76
2022/01/04 12:10:53;;;;;;;15.73;7.85;;;6.70;99.90;;;;;;4927644;28;20118;-76
2022/01/04 12:13:22;;;;;;;15.88;7.55;;;6.70;99.90;;;;;;4928027;29;20043;-76
2022/01/04 12:15:53;;;;;;;19.33;8.02;;;6.70;99.90;;;;;;5022842;22;20042;-75
2022/01/04 12:18:23;;;;;;;18.75;8.35;;;6.60;99.90;;;;;;4963193;28;20458;-75
2022/01/04 12:20:59;;;;;;;16.77;7.80;;;6.60;99.90;;;;;;4981551;28;20097;-73
2022/01/04 12:23:25;;;;;;;18.35;8.40;;;6.60;99.90;;;;;;4966745;28;20231;-74
2022/01/04 12:26:15;;;;;;;14.18;8.52;;;6.60;99.90;;;;;;4996932;28;20045;-74
2022/01/04 12:29:05;;;;;;;16.77;7.60;;;6.60;99.90;;;;;;5038737;28;20144;-74
2022/01/04 12:31:35;;;;;;;17.70;8.10;;;6.60;99.90;;;;;;5016093;28;20092;-76
2022/01/04 12:34:23;;;;;;;19.23;9.32;;;6.60;99.90;;;;;;5004417;28;20046;-74
2022/01/04 12:36:50;;;;;;;29.17;11.80;;;6.60;99.90;;;;;;4986344;28;20046;-74
2022/01/04 12:39:22;;;;;;;16.83;9.18;;;6.60;99.90;;;;;;4993207;28;20043;-73
2022/01/04 12:41:54;;;;;;;18.98;9.70;;;6.60;99.90;;;;;;4974889;28;20043;-74
2022/01/04 12:44:24;;;;;;;19.25;9.85;;;6.60;99.90;;;;;;4964110;28;20061;-72
2022/01/04 12:46:52;;;;;;;13.05;7.47;;;6.60;99.90;;;;;;4977237;28;20050;-75
2022/01/04 12:49:21;;;;;;;19.55;10.38;;;6.60;99.90;;;;;;4976108;28;20050;-73
2022/01/04 12:51:54;;;;;;;19.98;9.40;;;6.50;99.90;;;;;;4984702;28;20054;-73
2022/01/04 12:54:23;;;;;;;19.88;8.80;;;6.60;99.90;;;;;;5001085;28;20058;-73
2022/01/04 12:57:17;;;;;;;22.08;10.05;;;6.60;99.90;;;;;;5005025;28;20027;-72
2022/01/04 12:59:56;;;;;;;22.55;9.10;;;6.60;99.90;;;;;;4998758;28;20116;-74
2022/01/04 13:02:28;;;;;;;15.50;9.18;;;6.60;99.90;;;;;;4981798;28;20063;-73
2022/01/04 13:04:57;;;;;;;21.92;12.23;;;6.60;99.90;;;;;;4981329;28;20062;-73
2022/01/04 13:07:31;;;;;;;23.35;12.70;;;6.60;99.90;;;;;;4965086;28;20117;-73